createdAt,value
2023-05-23T00:00:52.108Z,63.32
2023-05-23T00:05:59.816Z,57.05
2023-05-23T00:11:02.414Z,59.95
2023-05-23T00:16:09.654Z,61.69
2023-05-23T00:21:13.655Z,68.22
2023-05-23T00:26:16.286Z,63.31
2023-05-23T00:31:18.964Z,58.57
2023-05-23T00:36:22.248Z,59.18
2023-05-23T00:41:27.005Z,62.13
2023-05-23T00:46:31.849Z,67.64
2023-05-23T00:51:34.638Z,62.54
2023-05-23T00:56:38.807Z,58.23
2023-05-23T01:01:41.575Z,58.89
2023-05-23T01:06:46.663Z,61.75
2023-05-23T01:12:00.756Z,67.73
2023-05-23T01:17:25.287Z,62.34
2023-05-23T01:22:50.566Z,58.20
2023-05-23T01:27:57.043Z,58.72
2023-05-23T01:33:00.766Z,61.68
2023-05-23T01:38:03.571Z,67.57
2023-05-23T01:43:06.783Z,62.87
2023-05-23T01:48:11.912Z,58.38
2023-05-23T01:53:17.533Z,58.37
2023-05-23T01:58:20.328Z,61.60
2023-05-23T02:03:23.068Z,67.95
2023-05-23T02:08:25.865Z,63.29
2023-05-23T02:13:28.470Z,58.96
2023-05-23T02:18:31.096Z,58.57
2023-05-23T02:23:33.880Z,62.08
2023-05-23T02:28:36.531Z,67.16
2023-05-23T02:33:39.117Z,62.14
2023-05-23T02:38:41.714Z,58.34
2023-05-23T02:43:47.062Z,59.34
2023-05-23T02:48:50.155Z,65.47
2023-05-23T02:53:52.771Z,61.49
2023-05-23T02:58:55.389Z,57.30
2023-05-23T03:03:58.147Z,59.80
2023-05-23T03:09:01.571Z,65.49
2023-05-23T03:14:04.276Z,60.88
2023-05-23T03:19:06.965Z,56.57
2023-05-23T03:24:09.623Z,59.23
2023-05-23T03:29:12.531Z,62.14
2023-05-23T03:34:15.434Z,67.64
2023-05-23T03:39:18.342Z,62.51
2023-05-23T03:44:21.012Z,57.83
2023-05-23T03:49:23.688Z,58.55
2023-05-23T03:54:26.644Z,61.15
2023-05-23T03:59:29.317Z,66.21
2023-05-23T04:04:32.323Z,60.37
2023-05-23T04:09:35.031Z,56.43
2023-05-23T04:14:39.469Z,59.95
2023-05-23T04:19:43.299Z,64.98
2023-05-23T04:24:46.164Z,59.25
2023-05-23T04:29:48.862Z,55.77
2023-05-23T04:34:52.269Z,58.15
2023-05-23T04:39:55.127Z,59.64
2023-05-23T04:44:58.222Z,60.72
2023-05-23T04:50:01.055Z,60.93
2023-05-23T04:55:04.739Z,65.49
2023-05-23T05:00:11.517Z,58.16
2023-05-23T05:05:14.111Z,54.48
2023-05-23T05:10:17.836Z,55.99
2023-05-23T05:15:20.520Z,56.56
2023-05-23T05:20:23.317Z,56.87
2023-05-23T05:25:27.402Z,57.48
2023-05-23T05:30:30.636Z,57.84
2023-05-23T05:35:38.406Z,57.47
2023-05-23T05:40:41.212Z,57.26
2023-05-23T05:45:43.976Z,56.74
2023-05-23T05:50:46.930Z,56.73
2023-05-23T05:55:49.614Z,56.47
2023-05-23T06:00:53.622Z,56.35
2023-05-23T06:05:56.225Z,56.22
2023-05-23T06:10:58.859Z,56.18
2023-05-23T06:16:01.552Z,55.61
2023-05-23T06:21:04.243Z,53.98
2023-05-23T06:26:10.647Z,52.01
2023-05-23T06:31:13.476Z,51.74
2023-05-23T06:36:16.090Z,50.23
2023-05-23T06:41:18.823Z,48.88
2023-05-23T06:46:21.670Z,47.54
2023-05-23T06:51:24.414Z,46.97
2023-05-23T06:56:27.114Z,46.09
2023-05-23T07:01:29.772Z,45.00
2023-05-23T07:06:32.913Z,44.45
2023-05-23T07:11:35.620Z,43.21
2023-05-23T07:16:38.228Z,42.66
2023-05-23T07:21:40.920Z,42.48
2023-05-23T07:26:43.764Z,42.34
2023-05-23T07:31:46.459Z,42.27
2023-05-23T07:36:50.320Z,42.54
2023-05-23T07:41:52.986Z,41.42
2023-05-23T07:46:56.998Z,39.92
2023-05-23T07:51:59.704Z,38.73
2023-05-23T07:57:02.328Z,39.21
2023-05-23T08:02:05.044Z,38.25
2023-05-23T08:07:08.865Z,37.35
2023-05-23T08:12:11.681Z,37.61
2023-05-23T08:17:14.455Z,37.00
2023-05-23T08:22:17.166Z,36.50
2023-05-23T08:27:19.859Z,36.16
2023-05-23T08:32:22.677Z,36.63
2023-05-23T08:37:25.363Z,36.12
2023-05-23T08:42:27.977Z,34.97
2023-05-23T08:47:33.925Z,34.61
2023-05-23T08:52:43.018Z,34.25
2023-05-23T08:57:46.139Z,33.49
2023-05-23T09:02:48.773Z,33.44
2023-05-23T09:07:51.876Z,33.27
2023-05-23T09:12:54.555Z,32.90
2023-05-23T09:18:03.751Z,32.72
2023-05-23T09:23:06.419Z,32.96
2023-05-23T09:28:09.331Z,32.75
2023-05-23T09:33:14.215Z,31.83
2023-05-23T09:38:19.187Z,31.83
2023-05-23T09:43:22.070Z,30.38
2023-05-23T09:48:30.998Z,29.01
2023-05-23T09:53:33.580Z,28.49
2023-05-23T09:58:36.946Z,29.16
2023-05-23T10:03:59.946Z,28.95
2023-05-23T10:09:09.850Z,29.12
2023-05-23T10:14:13.388Z,27.84
2023-05-23T10:19:46.276Z,28.41
2023-05-23T10:24:49.461Z,28.10
2023-05-23T10:29:52.221Z,27.70
2023-05-23T10:35:10.623Z,27.68
2023-05-23T10:40:31.080Z,26.61
2023-05-23T10:45:42.620Z,27.27
2023-05-23T10:50:46.772Z,27.04
2023-05-23T10:55:49.407Z,27.43
2023-05-23T11:00:53.135Z,27.51
2023-05-23T11:05:55.761Z,26.36
2023-05-23T11:11:03.223Z,27.15
2023-05-23T11:16:27.815Z,26.45
2023-05-23T11:21:32.093Z,25.32
2023-05-23T11:26:34.736Z,25.47
2023-05-23T11:31:38.304Z,25.13
2023-05-23T11:36:41.370Z,25.19
2023-05-23T11:41:44.091Z,25.05
2023-05-23T11:47:00.453Z,25.35
2023-05-23T11:52:03.889Z,24.68
2023-05-23T11:57:06.575Z,25.24
2023-05-23T12:02:09.272Z,26.47
2023-05-23T12:07:11.942Z,26.49
2023-05-23T12:12:15.032Z,26.50
2023-05-23T12:17:17.677Z,26.61
2023-05-23T12:22:26.891Z,26.85
2023-05-23T12:27:32.371Z,26.50
2023-05-23T12:32:39.772Z,26.31
2023-05-23T12:37:45.950Z,25.98
2023-05-23T12:42:52.883Z,24.98
2023-05-23T12:47:55.676Z,24.90
2023-05-23T12:52:59.041Z,24.18
2023-05-23T12:58:01.627Z,24.87
2023-05-23T13:03:06.582Z,24.79
2023-05-23T13:08:09.397Z,24.47
2023-05-23T13:13:12.286Z,24.51
2023-05-23T13:18:14.997Z,24.88
2023-05-23T13:23:17.745Z,24.68
2023-05-23T13:28:20.604Z,24.29
2023-05-23T13:33:23.670Z,24.22
2023-05-23T13:38:27.640Z,23.79
2023-05-23T13:43:31.192Z,23.67
2023-05-23T13:48:33.884Z,24.01
2023-05-23T13:53:36.556Z,23.45
2023-05-23T13:58:39.124Z,23.95
2023-05-23T14:03:41.807Z,24.57
2023-05-23T14:08:44.489Z,24.98
2023-05-23T14:13:47.142Z,25.41
2023-05-23T14:18:50.061Z,25.39
2023-05-23T14:23:52.679Z,26.07
2023-05-23T14:28:55.417Z,26.25
2023-05-23T14:33:58.236Z,26.83
2023-05-23T14:39:01.416Z,27.45
2023-05-23T14:44:04.392Z,28.23
2023-05-23T14:49:07.125Z,28.20
2023-05-23T14:54:09.870Z,28.59
2023-05-23T14:59:12.791Z,28.42
2023-05-23T15:04:15.749Z,28.32
2023-05-23T15:09:19.094Z,28.57
2023-05-23T15:14:22.889Z,29.04
2023-05-23T15:19:25.520Z,29.28
2023-05-23T15:24:28.533Z,29.97
2023-05-23T15:29:33.791Z,30.04
2023-05-23T15:34:36.529Z,29.97
2023-05-23T15:39:39.165Z,30.52
2023-05-23T15:44:41.869Z,30.28
2023-05-23T15:49:44.663Z,29.08
2023-05-23T15:54:47.283Z,25.72
2023-05-23T15:59:49.871Z,21.96
2023-05-23T16:04:52.483Z,20.41
2023-05-23T16:09:55.154Z,19.60
2023-05-23T16:14:57.930Z,19.39
2023-05-23T16:20:02.755Z,19.60
2023-05-23T16:25:06.732Z,20.30
2023-05-23T16:30:09.981Z,22.08
2023-05-23T16:35:12.926Z,23.34
2023-05-23T16:40:17.661Z,25.12
2023-05-23T16:45:21.853Z,26.35
2023-05-23T16:50:24.555Z,27.65
2023-05-23T16:55:27.188Z,28.72
2023-05-23T17:00:29.855Z,29.33
2023-05-23T17:05:33.823Z,29.84
2023-05-23T17:10:36.987Z,30.96
2023-05-23T17:15:40.111Z,31.68
2023-05-23T17:20:43.135Z,31.79
2023-05-23T17:25:46.570Z,32.53
2023-05-23T17:30:51.759Z,32.68
2023-05-23T17:35:55.187Z,32.92
2023-05-23T17:40:58.140Z,33.31
2023-05-23T17:46:01.248Z,33.31
2023-05-23T17:51:04.250Z,33.41
2023-05-23T17:56:09.219Z,34.32
2023-05-23T18:01:13.665Z,34.95
2023-05-23T18:06:16.902Z,35.00
2023-05-23T18:11:21.470Z,35.77
2023-05-23T18:16:24.140Z,36.38
2023-05-23T18:21:27.423Z,36.45
2023-05-23T18:26:30.353Z,37.46
2023-05-23T18:31:33.270Z,38.09
2023-05-23T18:36:36.606Z,37.97
2023-05-23T18:41:39.781Z,38.80
2023-05-23T18:46:42.736Z,39.10
2023-05-23T18:51:47.429Z,39.94
2023-05-23T18:56:50.440Z,39.91
2023-05-23T19:01:54.335Z,41.02
2023-05-23T19:06:57.123Z,41.87
2023-05-23T19:12:00.645Z,43.92
2023-05-23T19:17:05.824Z,44.84
2023-05-23T19:22:09.573Z,45.48
2023-05-23T19:27:12.471Z,45.89
2023-05-23T19:32:16.618Z,45.99
2023-05-23T19:37:20.907Z,46.37
2023-05-23T19:42:24.064Z,45.31
2023-05-23T19:47:29.555Z,45.02
2023-05-23T19:52:33.431Z,46.83
2023-05-23T19:57:37.127Z,48.19
2023-05-23T20:02:39.787Z,47.53
2023-05-23T20:07:43.501Z,47.14
2023-05-23T20:12:47.924Z,45.89
2023-05-23T20:17:51.026Z,46.74
2023-05-23T20:22:53.716Z,46.66
2023-05-23T20:27:56.604Z,47.74
2023-05-23T20:32:59.268Z,48.79
2023-05-23T20:38:02.278Z,51.14
2023-05-23T20:43:05.101Z,51.24
2023-05-23T20:48:07.957Z,50.80
2023-05-23T20:53:10.862Z,50.86
2023-05-23T20:58:13.429Z,50.88
2023-05-23T21:03:16.807Z,51.77
2023-05-23T21:08:19.615Z,51.58
2023-05-23T21:13:22.202Z,52.02
2023-05-23T21:18:24.819Z,52.32
2023-05-23T21:23:27.450Z,52.32
2023-05-23T21:28:30.412Z,51.61
2023-05-23T21:33:33.553Z,52.77
2023-05-23T21:38:37.507Z,52.73
2023-05-23T21:43:40.360Z,52.83
2023-05-23T21:48:42.990Z,53.48
2023-05-23T21:53:45.648Z,52.60
2023-05-23T21:58:48.210Z,53.18
2023-05-23T22:03:51.278Z,53.46
2023-05-23T22:08:54.251Z,53.48
2023-05-23T22:13:56.827Z,53.75
2023-05-23T22:18:59.436Z,54.26
2023-05-23T22:24:02.791Z,55.14
2023-05-23T22:29:05.477Z,55.01
2023-05-23T22:34:08.062Z,56.31
2023-05-23T22:39:10.698Z,57.05
2023-05-23T22:44:13.269Z,57.45
2023-05-23T22:49:15.835Z,56.83
2023-05-23T22:54:18.600Z,55.94
2023-05-23T22:59:21.228Z,55.54
2023-05-23T23:04:25.436Z,56.17
2023-05-23T23:09:28.156Z,56.47
2023-05-23T23:14:30.937Z,56.38
2023-05-23T23:19:35.255Z,56.84
2023-05-23T23:24:37.854Z,56.99
2023-05-23T23:29:40.463Z,57.09
2023-05-23T23:34:43.015Z,57.61
2023-05-23T23:39:45.788Z,57.31
2023-05-23T23:44:48.634Z,57.85
2023-05-23T23:49:51.338Z,58.18
2023-05-23T23:54:53.950Z,58.61
2023-05-23T23:59:56.787Z,58.48
